TAF KYNG
KYNG 090537Z 0906/1006 VRB03KT P6SM FEW040 FM100000 13013KT P6SM OVC090 FM100400 16010KT P6SM OVC050 WS020/21035KT=
METAR KYNG
WC KYNG
WS KYNG
WV KYNG